메인 페이지
METAR-TAF:

METAR-TAF

공항 :

왓따이 국제공항

비엔티안, 라오스

위도: 17-57N, 경도: 102-34E, 고도: 171m

현재 날씨관측

예보는 14분 전, 15:30시(UTC)에 발표되었습니다.
무풍
온도 26°C
습도 100%
기압 1006 hPa
시정: 3000m
고도 5000ft 상공 구름 많음
박무

METAR: VLVT 191530Z 00000KT 3000 BR BKN050 26/26 Q1006 NOSIG

시각: 22:44 (15:44 UTC)

예보

예보는 4 시간 44분 전, 11:00시(UTC)에 발표되었습니다.
예보 대상 시간: 19일 12시부터 20일 12시까지 (UTC)
서남서4kt
시정: 4000m
고도 1600ft 상공 구름 보통
고도 2700ft 상공 구름 조금, 적란운.
고도 4000ft 상공 구름 많음
고도 8300ft 상공 구름 많음
뇌우, 비
일시적
19일 18시부터 19일 22시까지 (UTC)
시정: 3000m
고도 1300ft 상공 구름 보통
고도 4000ft 상공 구름 보통
고도 8300ft 상공 구름 많음

TAF: VLVT 191100Z 1912/2012 24004KT 4000 TSRA SCT016 FEW027CB BKN040 BKN083 TEMPO 1918/1922 3000 RA SCT013 SCT040 BKN083

4,000개 이상의 공항 관측 자료 및 예보 (METAR 및 TAF 보고).

지도상에서 검색 가능한 기상관측소가 노란 점과 빨간 점으로 표시되어 있습니다.

기상관측소 명을 보려면 표시 위로 마우스를 이동하세요.

날씨 관측과 예보를 보려면 클릭하세요.

지도 변경 : 확대하려면 엑스 표시가 있는 녹색 버튼, 축소하려면 빼기 표시가 있는 녹색 버튼, 다음 페이지의 지도를 보려면 녹색 화살표를 클릭하세요.


METAR-TAF: